Time;durP1;ratioP1;P1;durP2;ratioP2;P2;SDS_P1;SDS_P2;PMS_P1;PMS_P2;Temp;Humidity;BMP_temperature;BMP_pressure;BME280_temperature;BME280_humidity;BME280_pressure;Samples;Min_cycle;Max_cycle;Signal;HPM_P1;HPM_P2
2022/09/27 00:01:11;;;;;;;7.75;5.85;;;;;;;16.39;78.95;98411.69;4885982;29;20021;-91
2022/09/27 00:03:37;;;;;;;8.80;6.50;;;;;;;16.28;79.58;98409.34;4886386;29;20035;-91
2022/09/27 00:06:12;;;;;;;11.02;6.40;;;;;;;16.32;79.24;98409.50;4886330;29;20075;-92
2022/09/27 00:08:38;;;;;;;9.10;6.45;;;;;;;16.28;79.59;98401.19;4885724;29;20020;-91
2022/09/27 00:11:05;;;;;;;8.32;6.60;;;;;;;16.26;80.05;98418.97;4901786;29;20031;-91
2022/09/27 00:13:30;;;;;;;9.60;6.10;;;;;;;16.25;80.03;98406.47;4888902;29;20035;-91
2022/09/27 00:15:59;;;;;;;10.77;7.07;;;;;;;16.21;80.99;98400.94;4905076;29;20023;-91
2022/09/27 00:18:25;;;;;;;7.95;6.43;;;;;;;16.28;80.41;98393.03;4921075;29;20062;-91
2022/09/27 00:20:50;;;;;;;9.10;6.90;;;;;;;16.42;79.95;98400.94;4889113;29;20027;-92
2022/09/27 00:23:16;;;;;;;9.18;7.05;;;;;;;16.47;79.73;98408.88;4904559;29;20039;-92
2022/09/27 00:25:42;;;;;;;12.40;7.20;;;;;;;16.43;78.85;98397.09;4904994;29;20024;-92
2022/09/27 00:28:08;;;;;;;9.57;6.82;;;;;;;16.32;79.27;98383.09;4920178;29;20074;-92
2022/09/27 00:30:34;;;;;;;9.30;6.55;;;;;;;16.48;78.96;98396.13;4905080;29;20027;-91
2022/09/27 00:33:00;;;;;;;10.10;7.05;;;;;;;16.28;80.53;98384.09;4920183;29;20027;-91
2022/09/27 00:35:29;;;;;;;10.75;7.20;;;;;;;16.33;81.32;98390.16;4919082;29;20072;-91
2022/09/27 00:37:55;;;;;;;10.15;6.80;;;;;;;16.23;81.02;98371.53;4886761;29;20099;-92
2022/09/27 00:40:23;;;;;;;9.95;7.05;;;;;;;16.33;81.12;98392.88;4869793;29;20487;-92
2022/09/27 00:42:49;;;;;;;8.90;6.60;;;;;;;16.31;80.57;98376.09;4886197;29;20127;-91
2022/09/27 00:45:18;;;;;;;9.25;6.60;;;;;;;16.34;80.20;98375.44;4885784;29;20478;-91
2022/09/27 00:47:54;;;;;;;9.05;6.80;;;;;;;16.35;80.36;98365.34;4900214;29;20050;-92
2022/09/27 00:50:38;;;;;;;11.35;6.57;;;;;;;16.48;80.54;98390.69;4901707;29;20399;-91
2022/09/27 00:53:23;;;;;;;9.48;6.18;;;;;;;16.41;80.73;98374.09;4885946;29;20036;-91
2022/09/27 00:55:53;;;;;;;9.18;6.68;;;;;;;16.39;81.01;98387.22;4885563;29;20376;-91
2022/09/27 00:58:21;;;;;;;11.80;7.85;;;;;;;16.29;81.33;98372.91;4870088;29;20067;-91
2022/09/27 01:00:50;;;;;;;9.38;7.10;;;;;;;16.28;81.72;98373.25;4870153;29;20514;-91
2022/09/27 01:03:22;;;;;;;10.82;8.05;;;;;;;16.23;82.56;98385.09;4885118;29;20458;-91
2022/09/27 01:05:48;;;;;;;11.07;7.32;;;;;;;16.15;81.92;98372.38;4886227;29;20075;-92
2022/09/27 01:08:14;;;;;;;11.85;8.40;;;;;;;16.24;82.58;98385.88;4901237;29;20035;-91
2022/09/27 01:10:45;;;;;;;12.90;8.55;;;;;;;16.20;82.27;98376.81;4885380;29;20039;-92
2022/09/27 01:13:46;;;;;;;11.02;8.27;;;;;;;16.09;83.30;98374.47;4885649;29;20036;-92
2022/09/27 01:16:37;;;;;;;10.68;7.93;;;;;;;16.08;82.51;98372.09;4862366;29;20037;-92
2022/09/27 01:19:18;;;;;;;9.60;8.00;;;;;;;16.12;82.86;98381.16;4857813;29;20041;-92
2022/09/27 01:21:52;;;;;;;10.35;8.48;;;;;;;16.05;82.62;98373.56;4862461;29;20037;-91
2022/09/27 01:24:38;;;;;;;12.35;7.43;;;;;;;16.16;82.03;98369.34;4847981;29;20034;-92
2022/09/27 01:27:21;;;;;;;12.55;7.80;;;;;;;16.24;81.95;98383.19;4848500;29;20411;-92
2022/09/27 01:29:59;;;;;;;12.38;8.27;;;;;;;16.10;83.30;98376.09;4877629;29;20254;-91
2022/09/27 01:32:55;;;;;;;10.50;8.18;;;;;;;16.12;82.54;98373.84;4861916;29;20143;-91
2022/09/27 01:35:27;;;;;;;11.75;8.93;;;;;;;16.11;81.76;98366.00;4865079;29;20099;-91
2022/09/27 01:38:02;;;;;;;11.48;8.30;;;;;;;16.05;82.50;98365.41;4863192;29;20037;-92
2022/09/27 01:40:56;;;;;;;10.13;7.97;;;;;;;16.00;82.82;98375.66;4847190;29;20032;-91
2022/09/27 01:43:26;;;;;;;11.88;7.85;;;;;;;16.02;81.78;98366.06;4862396;29;20143;-92
2022/09/27 01:46:06;;;;;;;10.52;8.02;;;;;;;16.14;80.01;98365.34;4847481;29;20092;-91
2022/09/27 01:48:34;;;;;;;10.55;7.80;;;;;;;16.28;80.32;98398.47;4886108;29;20550;-91
2022/09/27 01:51:49;;;;;;;9.43;7.45;;;;;;;16.33;81.17;98403.72;4870115;29;20040;-91
2022/09/27 01:54:18;;;;;;;11.05;8.07;;;;;;;16.28;80.43;98381.41;4843946;29;20142;-91
2022/09/27 01:56:48;;;;;;;10.05;7.60;;;;;;;16.33;81.39;98392.03;4812981;29;20038;-91
2022/09/27 01:59:19;;;;;;;10.40;8.10;;;;;;;16.24;81.79;98377.75;4812884;29;20049;-92
2022/09/27 02:01:46;;;;;;;11.60;8.45;;;;;;;16.12;82.38;98368.41;4828936;29;20100;-91
2022/09/27 02:04:15;;;;;;;12.32;8.88;;;;;;;16.28;82.10;98375.97;4828771;29;20044;-92
2022/09/27 02:06:43;;;;;;;10.93;8.20;;;;;;;16.26;82.04;98373.56;4813013;29;20544;-91
2022/09/27 02:09:13;;;;;;;15.00;8.27;;;;;;;16.17;81.18;98341.03;4850869;29;20077;-92
2022/09/27 02:11:40;;;;;;;13.20;8.48;;;;;;;16.26;82.08;98362.69;4830947;29;20032;-91
2022/09/27 02:14:16;;;;;;;13.90;9.10;;;;;;;16.22;82.49;98378.06;4831218;29;20139;-92
2022/09/27 02:16:59;;;;;;;13.38;9.35;;;;;;;16.09;82.84;98363.63;4830903;29;20196;-91
2022/09/27 02:19:42;;;;;;;9.88;8.07;;;;;;;16.21;82.14;98379.22;4870117;29;20048;-91
2022/09/27 02:22:10;;;;;;;9.32;7.97;;;;;;;16.25;81.16;98373.88;4861508;29;20089;-92
2022/09/27 02:24:40;;;;;;;10.02;8.43;;;;;;;16.03;82.58;98361.44;4879540;29;20035;-91
2022/09/27 02:27:11;;;;;;;10.40;8.45;;;;;;;16.03;83.09;98366.88;4902566;29;20039;-91
2022/09/27 02:29:41;;;;;;;12.70;8.88;;;;;;;15.85;83.10;98361.53;4887272;29;20032;-92
2022/09/27 02:32:06;;;;;;;14.10;8.80;;;;;;;15.78;83.85;98349.59;4902976;29;20047;-92
2022/09/27 02:34:33;;;;;;;9.95;8.45;;;;;;;15.91;83.93;98371.06;4887486;29;20039;-91
2022/09/27 02:36:58;;;;;;;10.88;8.48;;;;;;;16.00;83.54;98368.31;4918442;29;20039;-92
2022/09/27 02:39:24;;;;;;;10.90;8.38;;;;;;;16.10;82.42;98357.06;4887499;29;20032;-92
2022/09/27 02:41:51;;;;;;;9.00;8.05;;;;;;;16.16;82.11;98363.09;4887664;29;20035;-92
2022/09/27 02:44:17;;;;;;;8.45;7.55;;;;;;;16.11;81.96;98347.78;4888141;29;20031;-92
2022/09/27 02:47:21;;;;;;;10.35;7.43;;;;;;;16.12;82.86;98371.13;4902560;29;20030;-92
2022/09/27 02:50:03;;;;;;;11.93;9.35;;;;;;;15.91;83.36;98354.00;4934269;29;20062;-91
2022/09/27 02:52:31;;;;;;;12.05;9.45;;;;;;;15.93;83.61;98362.59;4903182;29;20035;-92
2022/09/27 02:55:08;;;;;;;16.20;9.57;;;;;;;16.00;83.68;98362.91;4918129;29;20065;-92
2022/09/27 02:57:56;;;;;;;12.80;8.48;;;;;;;16.15;82.99;98369.66;4918639;29;20040;-92
2022/09/27 03:00:30;;;;;;;17.70;8.95;;;;;;;16.12;83.11;98362.97;4918271;29;20044;-92
2022/09/27 03:03:18;;;;;;;12.68;8.98;;;;;;;15.92;83.62;98342.81;4887569;29;20043;-92
2022/09/27 03:06:04;;;;;;;12.60;8.55;;;;;;;16.05;82.85;98351.81;4888773;29;20087;-92
2022/09/27 03:08:30;;;;;;;11.10;9.20;;;;;;;16.00;83.83;98367.50;4902460;29;20036;-92
2022/09/27 03:10:55;;;;;;;18.50;9.73;;;;;;;16.04;83.89;98371.97;4886836;29;20046;-92
2022/09/27 03:13:22;;;;;;;11.43;9.43;;;;;;;15.89;83.71;98362.47;4888415;29;20035;-91
2022/09/27 03:15:47;;;;;;;11.00;9.30;;;;;;;15.88;84.28;98366.31;4890668;29;20016;-91
2022/09/27 03:18:13;;;;;;;12.60;9.18;;;;;;;15.95;84.31;98360.34;4906305;29;20050;-92
2022/09/27 03:20:39;;;;;;;21.23;9.85;;;;;;;15.95;84.04;98352.22;4921446;29;20399;-91
2022/09/27 03:23:05;;;;;;;11.93;10.07;;;;;;;16.06;84.22;98347.19;4904872;29;20036;-91
2022/09/27 03:25:31;;;;;;;13.65;9.48;;;;;;;16.07;84.07;98357.72;4905779;29;20491;-91
2022/09/27 03:27:57;;;;;;;11.68;9.60;;;;;;;16.01;83.75;98355.53;4905577;29;20035;-91
2022/09/27 03:30:25;;;;;;;13.27;8.95;;;;;;;15.98;83.71;98337.19;4889777;29;20028;-91
2022/09/27 03:32:51;;;;;;;15.82;9.48;;;;;;;16.03;83.87;98332.34;4890132;29;20422;-92
2022/09/27 03:35:17;;;;;;;11.02;8.82;;;;;;;15.90;83.40;98304.34;4905579;29;20031;-91
2022/09/27 03:37:43;;;;;;;12.80;9.73;;;;;;;15.85;84.11;98318.09;4920747;29;20058;-91
2022/09/27 03:40:10;;;;;;;12.05;9.23;;;;;;;15.85;84.10;98317.31;4889101;29;20048;-91
2022/09/27 03:42:40;;;;;;;11.02;8.90;;;;;;;15.94;83.78;98332.41;4886346;29;20032;-91
2022/09/27 03:45:06;;;;;;;10.63;8.75;;;;;;;15.93;83.38;98322.66;4885163;29;20031;-91
2022/09/27 03:47:32;;;;;;;11.75;7.97;;;;;;;16.06;82.81;98330.88;4870030;29;20043;-91
2022/09/27 03:49:57;;;;;;;9.75;7.85;;;;;;;16.05;81.70;98319.25;4885472;29;20036;-91
2022/09/27 03:52:23;;;;;;;10.60;8.60;;;;;;;16.10;81.96;98327.22;4886361;29;20027;-91
2022/09/27 03:54:50;;;;;;;12.07;8.50;;;;;;;15.96;83.55;98326.66;4886049;29;20550;-91
2022/09/27 03:57:15;;;;;;;10.65;8.88;;;;;;;15.95;83.53;98319.63;4884928;29;20036;-91
2022/09/27 03:59:41;;;;;;;10.60;8.75;;;;;;;16.00;83.30;98321.34;4884652;29;20074;-90
2022/09/27 04:02:07;;;;;;;13.73;9.02;;;;;;;15.99;83.35;98312.41;4885664;29;20036;-91
2022/09/27 04:04:33;;;;;;;11.93;9.75;;;;;;;15.97;83.84;98320.09;4911977;29;20028;-90
2022/09/27 04:06:58;;;;;;;12.27;9.63;;;;;;;15.94;83.78;98323.47;4904370;29;20067;-91
2022/09/27 04:09:24;;;;;;;11.82;9.98;;;;;;;15.95;83.85;98339.44;4889042;29;20023;-92
2022/09/27 04:11:49;;;;;;;12.85;10.27;;;;;;;15.82;84.72;98307.91;4904858;29;20066;-92
2022/09/27 04:14:15;;;;;;;12.38;10.45;;;;;;;15.64;85.18;98287.38;4888873;29;20083;-92
2022/09/27 04:16:44;;;;;;;15.63;10.25;;;;;;;15.93;85.02;98328.09;4920160;29;20032;-92
2022/09/27 04:19:09;;;;;;;16.55;10.80;;;;;;;15.86;85.21;98306.13;4920255;29;20023;-93
2022/09/27 04:21:35;;;;;;;14.23;9.68;;;;;;;15.67;84.87;98282.09;4889622;29;20044;-92
2022/09/27 04:24:01;;;;;;;11.27;8.95;;;;;;;15.78;84.92;98298.03;4904884;29;20063;-91
2022/09/27 04:26:26;;;;;;;12.48;9.10;;;;;;;15.75;84.32;98259.56;4921728;29;20114;-94
2022/09/27 04:28:53;;;;;;;12.80;8.60;;;;;;;15.83;84.23;98244.34;4876895;29;20028;-91
2022/09/27 04:31:19;;;;;;;11.63;9.23;;;;;;;15.86;84.11;98240.97;4886641;29;20068;-93
2022/09/27 04:33:44;;;;;;;12.20;8.98;;;;;;;15.80;84.23;98236.88;4903009;29;20463;-93
2022/09/27 04:36:28;;;;;;;13.45;9.77;;;;;;;15.85;84.68;98225.78;4887985;29;20059;-89
2022/09/27 04:38:55;;;;;;;12.38;8.88;;;;;;;16.03;82.97;98237.31;4920831;29;20027;-90
2022/09/27 04:41:22;;;;;;;11.40;8.85;;;;;;;15.83;83.35;98209.03;4904399;29;20031;-92
2022/09/27 04:43:49;;;;;;;11.65;8.38;;;;;;;16.03;82.19;98250.09;4917865;29;20031;-92
2022/09/27 04:46:20;;;;;;;10.23;8.25;;;;;;;15.83;82.10;98233.47;4903770;29;20119;-94
2022/09/27 04:48:48;;;;;;;13.15;9.20;;;;;;;16.06;83.09;98252.97;4907547;29;20031;-90
2022/09/27 04:51:18;;;;;;;13.43;10.20;;;;;;;15.82;83.88;98236.53;4904111;29;20495;-90
2022/09/27 04:53:44;;;;;;;17.98;9.68;;;;;;;16.04;82.75;98248.97;4905235;29;20399;-90
2022/09/27 04:56:11;;;;;;;11.40;8.65;;;;;;;16.00;82.43;98246.16;4904907;29;20027;-92
2022/09/27 04:58:37;;;;;;;10.68;8.60;;;;;;;16.18;82.18;98273.94;4903934;29;20143;-92
2022/09/27 05:01:03;;;;;;;14.13;9.27;;;;;;;16.11;82.85;98257.38;4901931;29;20106;-94
2022/09/27 05:03:29;;;;;;;17.40;10.80;;;;;;;16.05;83.84;98250.56;4919704;29;20087;-92
2022/09/27 05:05:55;;;;;;;11.30;9.00;;;;;;;16.09;83.22;98243.34;4919878;29;20500;-92
2022/09/27 05:08:33;;;;;;;15.77;10.07;;;;;;;16.04;84.06;98243.53;4906501;29;20114;-93
2022/09/27 05:11:00;;;;;;;12.15;9.70;;;;;;;16.09;82.91;98227.84;4919947;29;20063;-93
2022/09/27 05:13:32;;;;;;;11.32;8.98;;;;;;;16.30;82.12;98241.38;4916413;29;20032;-92
2022/09/27 05:16:04;;;;;;;18.17;11.88;;;;;;;16.03;83.25;98209.38;4902475;29;20053;-93
2022/09/27 05:18:30;;;;;;;13.85;10.50;;;;;;;16.15;83.38;98217.59;4902651;29;20052;-91
2022/09/27 05:20:57;;;;;;;16.67;11.43;;;;;;;16.28;83.30;98245.56;4884806;29;20040;-90
2022/09/27 05:23:24;;;;;;;26.98;18.42;;;;;;;16.35;82.37;98243.09;4925801;29;20052;-91
2022/09/27 05:25:52;;;;;;;18.77;12.57;;;;;;;16.12;83.79;98218.22;4904701;29;20499;-92
2022/09/27 05:28:17;;;;;;;17.52;12.57;;;;;;;16.22;84.23;98233.31;4889195;29;20019;-90
2022/09/27 05:30:43;;;;;;;22.13;15.10;;;;;;;16.12;83.98;98226.38;4923227;29;20024;-88
2022/09/27 05:33:09;;;;;;;19.95;12.52;;;;;;;16.29;82.77;98239.00;4915403;29;20030;-91
2022/09/27 05:35:36;;;;;;;13.82;8.82;;;;;;;16.39;81.02;98229.66;4919158;29;20023;-89
2022/09/27 05:38:02;;;;;;;16.42;9.93;;;;;;;16.47;80.25;98242.34;4921111;29;20090;-90
2022/09/27 05:40:39;;;;;;;17.75;11.07;;;;;;;16.37;82.54;98221.81;4907278;29;20028;-91
2022/09/27 05:43:05;;;;;;;20.55;14.80;;;;;;;16.54;82.08;98210.78;4893123;29;20417;-91
2022/09/27 05:45:32;;;;;;;24.15;17.27;;;;;;;16.56;82.31;98208.53;4892363;29;20033;-92
2022/09/27 05:48:29;;;;;;;17.17;11.18;;;;;;;16.88;81.50;98227.06;4933828;29;20020;-92
2022/09/27 05:50:55;;;;;;;22.23;13.60;;;;;;;16.78;80.82;98184.78;4847679;29;20040;-93
2022/09/27 05:53:33;;;;;;;19.73;12.60;;;;;;;16.93;80.79;98199.66;4815931;29;20045;-94
2022/09/27 05:56:23;;;;;;;21.40;12.20;;;;;;;17.12;78.88;98229.81;4818374;29;20048;-93
2022/09/27 05:58:51;;;;;;;13.02;10.32;;;;;;;17.22;76.92;98225.03;4819004;29;20124;-95
2022/09/27 06:01:19;;;;;;;18.30;10.52;;;;;;;17.12;76.60;98213.50;4815689;29;20078;-92
2022/09/27 06:03:46;;;;;;;14.25;9.88;;;;;;;17.36;77.56;98231.72;4861272;29;20041;-90
2022/09/27 06:06:12;;;;;;;15.27;10.93;;;;;;;17.32;77.71;98228.09;4853920;29;20104;-90
2022/09/27 06:08:38;;;;;;;18.38;10.52;;;;;;;17.42;76.43;98237.72;4832672;29;20029;-95
2022/09/27 06:11:07;;;;;;;15.43;11.98;;;;;;;17.24;75.95;98204.50;4832508;29;20045;-93
2022/09/27 06:13:44;;;;;;;20.88;11.20;;;;;;;17.48;76.68;98230.91;4846879;29;20142;-96
2022/09/27 06:16:10;;;;;;;13.20;10.13;;;;;;;17.36;77.38;98209.16;4879219;29;20132;-94
2022/09/27 06:18:36;;;;;;;13.70;10.43;;;;;;;17.48;77.63;98221.97;4856725;29;20066;-92
2022/09/27 06:21:03;;;;;;;18.13;9.98;;;;;;;17.43;78.09;98223.00;4854602;29;20032;-96
2022/09/27 06:24:04;;;;;;;13.77;10.60;;;;;;;17.45;77.91;98231.63;4895724;29;20067;-96
2022/09/27 06:26:30;;;;;;;19.80;9.95;;;;;;;17.46;78.20;98219.59;4921659;29;20020;-96
2022/09/27 06:28:59;;;;;;;12.75;9.43;;;;;;;17.62;77.96;98225.13;4903110;29;20490;-96
2022/09/27 06:31:44;;;;;;;12.48;8.52;;;;;;;17.51;77.69;98219.34;4903402;29;20028;-96
2022/09/27 06:37:38;;;;;;;17.08;9.00;;;;;;;17.57;77.40;98204.34;4925257;29;20122;-96
2022/09/27 06:45:39;;;;;;;12.07;9.48;;;;;;;17.78;77.97;98217.81;5180046;23;20055;-95
2022/09/27 06:48:55;;;;;;;19.55;10.73;;;;;;;17.65;78.95;98199.13;4940866;29;20036;-96
2022/09/27 07:04:51;;;;;;;11.00;7.40;;;;;;;18.40;74.49;98178.66;5104657;23;20059;-94
2022/09/27 07:07:23;;;;;;;10.70;6.90;;;;;;;18.17;75.40;98171.06;4936620;29;20087;-95
2022/09/27 07:10:25;;;;;;;9.05;7.30;;;;;;;18.15;76.61;98168.66;4910990;29;20034;-92
2022/09/27 07:13:06;;;;;;;18.92;13.73;;;;;;;18.18;77.01;98167.19;4912993;29;20110;-94
2022/09/27 07:19:42;;;;;;;19.58;13.70;;;;;;;18.26;75.88;98160.81;4934815;29;20080;-93
2022/09/27 07:31:28;;;;;;;12.45;9.85;;;;;;;19.02;72.41;98188.00;5624405;23;20122;-96
2022/09/27 07:34:17;;;;;;;11.02;7.53;;;;;;;19.16;72.80;98163.78;4905642;29;20032;-96
2022/09/27 07:36:44;;;;;;;9.38;6.53;;;;;;;19.29;72.84;98182.78;4919059;29;20038;-92
2022/09/27 07:39:10;;;;;;;8.73;6.65;;;;;;;19.42;72.29;98197.88;4899266;29;20059;-94
2022/09/27 07:42:06;;;;;;;8.50;6.20;;;;;;;19.61;71.69;98210.81;4901343;29;20047;-96
2022/09/27 07:44:44;;;;;;;15.30;6.97;;;;;;;19.61;71.26;98190.88;4918301;29;20145;-96
2022/09/27 07:50:56;;;;;;;9.02;5.93;;;;;;;19.69;69.76;98182.47;4857135;29;20049;-95
2022/09/27 07:53:23;;;;;;;10.32;7.38;;;;;;;19.82;69.86;98176.91;4807343;29;20506;-94
2022/09/27 08:12:55;;;;;;;46.17;25.63;;;;;;;20.55;69.31;98186.13;5176543;23;20062;-95
2022/09/27 08:15:27;;;;;;;11.70;6.40;;;;;;;20.58;69.26;98190.88;4930952;28;20067;-96
2022/09/27 08:24:37;;;;;;;8.52;5.10;;;;;;;20.50;69.02;98153.59;4945401;29;20063;-93
2022/09/27 08:27:04;;;;;;;13.30;5.75;;;;;;;20.55;68.50;98165.03;4928559;29;20043;-96
2022/09/27 08:29:50;;;;;;;10.27;6.32;;;;;;;20.61;68.62;98178.41;4937721;29;20031;-96
2022/09/27 08:33:07;;;;;;;15.57;10.27;;;;;;;20.69;69.25;98180.94;4929904;29;20038;-93
2022/09/27 08:36:07;;;;;;;12.60;7.03;;;;;;;20.75;67.53;98184.13;4921091;29;20040;-95
2022/09/27 08:38:45;;;;;;;7.72;5.38;;;;;;;20.65;67.27;98160.13;4927510;29;20032;-90
2022/09/27 08:41:55;;;;;;;8.20;5.93;;;;;;;20.90;66.26;98174.22;4923649;29;20036;-94
2022/09/27 08:44:42;;;;;;;7.75;5.18;;;;;;;20.89;66.26;98158.94;4924535;29;20028;-96
2022/09/27 08:47:18;;;;;;;8.27;6.65;;;;;;;21.04;66.01;98152.53;4925006;29;20099;-90
2022/09/27 08:53:56;;;;;;;17.42;11.55;;;;;;;21.55;63.32;98129.41;4881777;29;20028;-92
2022/09/27 09:03:23;;;;;;;7.50;4.05;;;;;;;21.74;62.01;98121.03;4873607;29;20114;-91
2022/09/27 09:13:30;;;;;;;5.45;4.35;;;;;;;22.09;62.15;98132.78;4857413;29;20059;-90
2022/09/27 09:16:45;;;;;;;11.82;7.93;;;;;;;21.93;62.54;98098.13;4916694;29;20040;-94
2022/09/27 09:26:30;;;;;;;10.87;6.73;;;;;;;22.06;61.75;98122.53;4862115;29;20043;-96
2022/09/27 09:46:40;;;;;;;10.52;6.90;;;;;;;22.60;61.69;98064.31;4817425;29;20053;-91
2022/09/27 09:49:36;;;;;;;8.10;5.07;;;;;;;22.55;59.53;98042.69;4847298;29;20524;-94
2022/09/27 09:52:10;;;;;;;5.32;4.15;;;;;;;22.69;59.21;98050.25;4829634;29;20108;-92
2022/09/27 09:54:41;;;;;;;7.13;4.80;;;;;;;22.78;59.65;98063.63;4878093;29;20043;-91
2022/09/27 09:57:27;;;;;;;7.32;4.43;;;;;;;22.55;61.06;98059.16;4899258;29;20076;-93
2022/09/27 10:03:02;;;;;;;6.25;3.97;;;;;;;22.69;60.53;98076.91;4899232;29;20127;-91
2022/09/27 10:05:33;;;;;;;6.63;3.75;;;;;;;22.58;59.57;98061.16;4862771;29;20484;-91
2022/09/27 10:08:01;;;;;;;7.03;4.05;;;;;;;22.74;59.23;98062.81;4855424;29;20105;-92
2022/09/27 10:17:43;;;;;;;9.18;5.60;;;;;;;22.91;60.14;98034.72;4842871;29;20167;-93
2022/09/27 10:31:34;;;;;;;5.43;3.92;;;;;;;23.39;57.36;98009.06;5199992;23;20062;-96
2022/09/27 10:34:42;;;;;;;6.95;4.65;;;;;;;23.32;57.21;97998.03;4936647;28;20026;-94
2022/09/27 10:47:18;;;;;;;;;;;;;;;;;;;;;
2022/09/27 10:49:44;;;;;;;5.45;3.88;;;;;;;23.48;58.26;98025.97;4910811;29;20117;-95
2022/09/27 10:53:21;;;;;;;5.90;4.13;;;;;;;23.25;59.36;98003.53;4879696;29;20033;-95
2022/09/27 11:06:03;;;;;;;5.82;5.00;;;;;;;23.11;59.25;98009.72;4973903;29;20054;-93
2022/09/27 11:08:44;;;;;;;9.57;4.68;;;;;;;23.12;59.72;98016.81;4892745;29;20205;-94
2022/09/27 11:15:49;;;;;;;7.95;4.78;;;;;;;22.70;60.96;97988.72;4878069;29;20099;-92
2022/09/27 11:18:56;;;;;;;7.95;5.07;;;;;;;22.90;61.01;98015.88;4919280;29;20537;-91
2022/09/27 11:21:10;;;;;;;7.20;5.18;;;;;;;22.95;59.90;98010.81;4913879;29;20064;-93
2022/09/27 11:24:06;;;;;;;5.22;4.35;;;;;;;23.00;59.11;98017.91;4907439;29;20090;-93
2022/09/27 11:27:20;;;;;;;7.25;4.30;;;;;;;23.13;58.73;98016.41;4940070;29;20048;-94
2022/09/27 11:30:19;;;;;;;4.65;4.20;;;;;;;23.20;58.82;98004.66;4831785;29;20105;-93
2022/09/27 11:33:32;;;;;;;4.68;3.97;;;;;;;23.28;58.67;98005.47;4862754;29;20123;-96
2022/09/27 11:36:45;;;;;;;7.50;4.88;;;;;;;23.39;58.84;98003.56;4924946;29;20019;-94
2022/09/27 11:39:38;;;;;;;4.72;3.83;;;;;;;23.45;57.75;98007.53;4932593;29;20070;-94
2022/09/27 11:42:41;;;;;;;5.43;4.68;;;;;;;23.51;56.60;97992.22;4921829;29;20034;-94
2022/09/27 11:45:31;;;;;;;4.30;3.90;;;;;;;23.70;56.47;98002.06;4923966;29;20023;-95
2022/09/27 11:48:11;;;;;;;9.80;4.50;;;;;;;23.74;56.32;97997.38;4917999;29;20076;-96
2022/09/27 11:54:32;;;;;;;5.18;4.22;;;;;;;24.01;55.68;97983.28;4866482;29;20037;-94
2022/09/27 11:57:48;;;;;;;5.55;4.10;;;;;;;24.30;54.36;98008.03;4862600;29;20072;-93
2022/09/27 12:01:02;;;;;;;5.47;4.18;;;;;;;24.34;54.35;98001.38;4856841;29;20131;-94
2022/09/27 12:03:55;;;;;;;5.95;4.07;;;;;;;24.39;55.10;98022.97;4845023;29;20046;-94
2022/09/27 12:06:24;;;;;;;9.73;4.57;;;;;;;24.22;55.07;98001.75;4850426;29;20049;-95
2022/09/27 12:09:18;;;;;;;6.43;4.43;;;;;;;24.43;55.12;98024.94;4823139;29;20049;-96
2022/09/27 12:15:05;;;;;;;;;;;;;;;;;;;;;
2022/09/27 12:20:41;;;;;;;4.70;3.55;;;;;;;24.23;54.11;97992.31;5146978;23;20055;-96
2022/09/27 12:26:44;;;;;;;6.43;4.53;;;;;;;24.33;54.41;97996.25;4968592;28;20070;-95
2022/09/27 12:29:44;;;;;;;7.72;3.67;;;;;;;24.53;53.37;98018.66;4931262;29;20125;-94
2022/09/27 12:33:22;;;;;;;;;;;;;;;;;;;;;
2022/09/27 12:36:12;;;;;;;4.38;3.08;;;;;;;24.24;53.17;98024.16;4879420;28;20478;-96
2022/09/27 12:39:24;;;;;;;6.32;3.20;;;;;;;24.35;52.38;98024.16;4881705;29;20117;-96
2022/09/27 12:42:00;;;;;;;9.38;8.45;;;;;;;24.20;53.04;98002.16;4895227;29;20092;-96
2022/09/27 12:44:31;;;;;;;7.25;4.13;;;;;;;24.18;52.38;97996.25;4858596;29;20127;-95
2022/09/27 12:47:18;;;;;;;3.58;2.47;;;;;;;24.18;51.50;98012.75;4899971;29;20047;-95
2022/09/27 12:50:30;;;;;;;3.83;2.65;;;;;;;24.08;51.58;98007.25;4902296;29;20058;-95
2022/09/27 12:53:04;;;;;;;;;;;;;;;24.03;51.45;98004.88;4959440;29;20027;-96
2022/09/27 12:56:25;;;;;;;3.42;2.47;;;;;;;23.79;51.23;97979.72;4944976;29;19918;-96
2022/09/27 13:05:38;;;;;;;3.13;2.20;;;;;;;23.89;51.56;98008.44;5669657;23;20050;-96
2022/09/27 13:08:44;;;;;;;3.33;2.80;;;;;;;23.75;51.03;98017.41;4952567;29;20102;-96
2022/09/27 13:11:42;;;;;;;3.08;2.40;;;;;;;23.54;51.31;98001.66;4953706;28;20019;-96
2022/09/27 13:14:25;;;;;;;3.10;2.25;;;;;;;23.72;51.67;98009.91;4936232;29;20047;-95
2022/09/27 13:16:53;;;;;;;2.83;2.22;;;;;;;23.69;51.19;98010.72;4932287;29;20347;-93
2022/09/27 13:19:41;;;;;;;4.22;2.47;;;;;;;23.77;51.56;98012.31;4917312;29;20510;-96
2022/09/27 13:22:29;;;;;;;3.50;2.25;;;;;;;23.69;51.12;97989.50;4952815;29;20110;-95
2022/09/27 13:24:59;;;;;;;3.03;2.05;;;;;;;23.62;50.58;97984.00;4949797;29;20063;-96
2022/09/27 13:27:25;;;;;;;4.43;2.25;;;;;;;23.72;50.99;98007.16;4934041;29;20031;-94
2022/09/27 13:30:18;;;;;;;5.22;3.80;;;;;;;23.54;51.33;97971.41;4943824;29;20034;-95
2022/09/27 13:33:18;;;;;;;2.63;1.70;;;;;;;23.76;51.13;98007.97;4910885;29;20039;-95
2022/09/27 13:38:42;;;;;;;2.08;1.75;;;;;;;23.37;52.17;97992.19;4992475;28;20039;-96
2022/09/27 13:44:36;;;;;;;3.15;1.80;;;;;;;23.40;52.70;97986.69;5018761;23;20027;-96
2022/09/27 13:47:29;;;;;;;2.83;2.08;;;;;;;23.57;53.30;97990.66;4944657;29;20043;-95
2022/09/27 13:50:21;;;;;;;2.10;1.55;;;;;;;23.50;51.75;97968.66;4945019;29;20047;-94
2022/09/27 13:59:11;;;;;;;3.13;1.77;;;;;;;23.76;51.98;97973.06;5133963;23;20115;-96
2022/09/27 14:05:10;;;;;;;5.43;3.08;;;;;;;23.45;53.15;97962.75;5145257;23;20421;-96
2022/09/27 14:07:40;;;;;;;2.50;1.95;;;;;;;23.24;52.23;97955.25;4907515;29;20105;-95
2022/09/27 14:10:07;;;;;;;2.90;1.80;;;;;;;23.44;52.62;97972.97;4876206;29;20045;-94
2022/09/27 14:13:07;;;;;;;4.28;2.30;;;;;;;23.60;53.13;97987.13;4888012;29;20032;-93
2022/09/27 14:15:35;;;;;;;2.83;1.75;;;;;;;23.65;52.65;97958.47;4847487;29;20128;-93
2022/09/27 14:18:10;;;;;;;3.53;1.80;;;;;;;23.82;51.78;97973.44;4849359;29;20062;-94
2022/09/27 14:20:40;;;;;;;2.67;2.10;;;;;;;23.99;50.86;97991.16;4855170;29;20112;-96
2022/09/27 14:23:14;;;;;;;4.63;2.33;;;;;;;23.89;51.66;97967.97;4852501;29;20049;-95
2022/09/27 14:25:48;;;;;;;2.03;1.50;;;;;;;23.87;49.94;97975.81;4834742;29;20186;-96
2022/09/27 14:28:19;;;;;;;3.10;1.80;;;;;;;24.03;50.56;97993.88;4832572;29;20041;-95
2022/09/27 14:30:46;;;;;;;4.20;1.58;;;;;;;23.75;51.02;97974.19;4850352;29;20108;-95
2022/09/27 14:33:45;;;;;;;2.75;1.48;;;;;;;23.82;50.65;97959.69;4858178;29;20068;-96
2022/09/27 14:38:52;;;;;;;4.82;2.08;;;;;;;23.85;51.33;97958.16;4978958;23;20059;-94
2022/09/27 14:41:23;;;;;;;29.10;5.03;;;;;;;23.76;51.54;97942.00;4928951;29;20031;-96
2022/09/27 14:43:55;;;;;;;4.68;2.05;;;;;;;23.81;51.58;97958.13;4947014;29;20027;-95
2022/09/27 14:46:29;;;;;;;5.90;2.33;;;;;;;23.73;52.39;97959.28;4912263;29;20027;-93
2022/09/27 14:48:58;;;;;;;6.63;2.88;;;;;;;23.64;53.13;97967.91;4955784;29;20485;-93
2022/09/27 14:51:31;;;;;;;3.67;2.40;;;;;;;23.47;53.18;97955.72;4925286;29;20401;-95
2022/09/27 14:54:03;;;;;;;2.90;2.50;;;;;;;23.49;53.65;97966.28;4957511;29;20434;-94
2022/09/27 14:56:37;;;;;;;;;;;;;;;23.48;53.42;97979.25;4911757;29;20047;-94
2022/09/27 14:59:10;;;;;;;5.63;2.83;;;;;;;23.35;53.54;97970.59;4939926;29;20004;-94
2022/09/27 15:01:39;;;;;;;6.43;3.85;;;;;;;23.13;54.40;97946.97;4907576;29;20028;-94
2022/09/27 15:04:12;;;;;;;5.60;3.00;;;;;;;23.27;53.86;97966.25;4924796;29;20516;-95
2022/09/27 15:06:37;;;;;;;6.00;3.40;;;;;;;23.15;54.02;97953.66;4940651;29;20417;-96
2022/09/27 15:09:05;;;;;;;9.60;3.70;;;;;;;23.06;54.39;97955.97;4927276;29;20055;-92
2022/09/27 15:11:40;;;;;;;4.43;2.53;;;;;;;23.01;54.33;97953.59;4945654;29;20055;-95
2022/09/27 15:14:06;;;;;;;4.90;2.28;;;;;;;22.92;54.09;97951.19;4942255;29;20122;-94
2022/09/27 15:16:35;;;;;;;3.88;2.38;;;;;;;23.05;54.35;97979.09;4909899;29;20129;-93
2022/09/27 15:19:08;;;;;;;2.90;2.00;;;;;;;22.76;55.16;97956.97;4940649;29;20577;-93
2022/09/27 15:21:35;;;;;;;6.40;3.75;;;;;;;22.64;55.53;97937.31;4910548;29;20047;-94
2022/09/27 15:24:04;;;;;;;4.15;2.42;;;;;;;22.64;56.01;97945.56;4942017;29;20031;-94